createdAt,value
2023-06-19T00:00:58.314Z,209.61
2023-06-19T00:01:58.300Z,210.11
2023-06-19T00:02:58.462Z,208.37
2023-06-19T00:03:58.547Z,209.35
2023-06-19T00:04:58.516Z,209.32
2023-06-19T00:05:58.611Z,212.25
2023-06-19T00:06:58.753Z,212.72
2023-06-19T00:07:58.778Z,213.20
2023-06-19T00:08:58.866Z,211.07
2023-06-19T00:09:58.976Z,210.88
2023-06-19T00:10:58.997Z,210.68
2023-06-19T00:11:59.109Z,210.07
2023-06-19T00:12:59.188Z,210.26
2023-06-19T00:13:59.842Z,210.68
2023-06-19T00:14:59.401Z,210.69
2023-06-19T00:15:59.485Z,210.90
2023-06-19T00:16:59.549Z,213.42
2023-06-19T00:17:59.827Z,212.59
2023-06-19T00:18:59.696Z,211.66
2023-06-19T00:19:59.849Z,212.95
2023-06-19T00:20:59.921Z,213.91
2023-06-19T00:21:59.980Z,213.84
2023-06-19T00:23:00.049Z,212.50
2023-06-19T00:24:00.140Z,210.72
2023-06-19T00:25:00.277Z,211.17
2023-06-19T00:26:00.275Z,213.61
2023-06-19T00:27:00.360Z,215.82
2023-06-19T00:28:00.446Z,216.64
2023-06-19T00:29:00.506Z,215.65
2023-06-19T00:30:00.577Z,217.59
2023-06-19T00:31:01.332Z,219.55
2023-06-19T00:32:00.855Z,217.75
2023-06-19T00:33:00.931Z,214.07
2023-06-19T00:34:00.999Z,213.14
2023-06-19T00:35:01.107Z,213.39
2023-06-19T00:36:01.180Z,213.47
2023-06-19T00:37:01.292Z,214.99
2023-06-19T00:38:01.366Z,214.95
2023-06-19T00:39:01.467Z,215.72
2023-06-19T00:40:01.555Z,212.68
2023-06-19T00:41:01.622Z,211.45
2023-06-19T00:42:01.841Z,213.31
2023-06-19T00:43:01.860Z,215.66
2023-06-19T00:44:01.952Z,217.66
2023-06-19T00:45:02.042Z,217.97
2023-06-19T00:46:02.195Z,220.58
2023-06-19T00:47:02.230Z,220.65
2023-06-19T00:48:02.466Z,221.86
2023-06-19T00:49:02.401Z,222.85
2023-06-19T00:50:02.526Z,221.50
2023-06-19T00:51:02.600Z,220.56
2023-06-19T00:52:02.696Z,219.51
2023-06-19T00:53:02.796Z,215.57
2023-06-19T00:54:02.892Z,215.84
2023-06-19T00:55:02.993Z,216.50
2023-06-19T00:56:03.095Z,210.94
2023-06-19T00:57:03.204Z,206.98
2023-06-19T00:58:03.424Z,207.78
2023-06-19T00:59:03.402Z,209.71
2023-06-19T01:00:03.504Z,209.84
2023-06-19T01:01:08.693Z,209.59
2023-06-19T01:02:04.704Z,209.64
2023-06-19T01:03:03.766Z,210.05
2023-06-19T01:04:03.932Z,211.04
2023-06-19T01:05:03.851Z,213.45
2023-06-19T01:06:03.910Z,215.99
2023-06-19T01:07:03.963Z,215.34
2023-06-19T01:08:04.047Z,214.03
2023-06-19T01:09:04.075Z,210.40
2023-06-19T01:10:04.156Z,206.34
2023-06-19T01:11:11.814Z,199.80
2023-06-19T01:12:05.281Z,196.59
2023-06-19T01:13:04.344Z,196.09
2023-06-19T01:14:04.403Z,196.62
2023-06-19T01:15:04.479Z,197.08
2023-06-19T01:16:04.551Z,196.27
2023-06-19T01:17:04.652Z,195.24
2023-06-19T01:18:04.821Z,194.16
2023-06-19T01:19:04.765Z,193.75
2023-06-19T01:20:04.845Z,191.77
2023-06-19T01:21:04.914Z,193.47
2023-06-19T01:22:05.353Z,195.03
2023-06-19T01:23:05.070Z,196.61
2023-06-19T01:24:05.347Z,198.04
2023-06-19T01:25:05.315Z,199.82
2023-06-19T01:26:05.445Z,201.34
2023-06-19T01:27:05.551Z,202.67
2023-06-19T01:28:05.685Z,203.83
2023-06-19T01:29:05.849Z,207.33
2023-06-19T01:30:05.908Z,209.29
2023-06-19T01:31:06.022Z,209.25
2023-06-19T01:32:06.347Z,209.84
2023-06-19T01:33:06.353Z,210.26
2023-06-19T01:34:06.399Z,209.61
2023-06-19T01:35:06.533Z,209.28
2023-06-19T01:36:06.674Z,209.05
2023-06-19T01:37:06.807Z,209.72
2023-06-19T01:38:06.946Z,211.51
2023-06-19T01:39:07.078Z,214.68
2023-06-19T01:40:07.206Z,215.38
2023-06-19T01:41:07.321Z,216.99
2023-06-19T01:42:07.437Z,218.08
2023-06-19T01:43:07.560Z,217.04
2023-06-19T01:44:07.693Z,218.54
2023-06-19T01:45:07.834Z,221.85
2023-06-19T01:46:07.985Z,223.05
2023-06-19T01:47:08.051Z,222.41
2023-06-19T01:48:08.206Z,220.14
2023-06-19T01:49:08.299Z,217.14
2023-06-19T01:50:09.367Z,215.33
2023-06-19T01:51:08.616Z,215.07
2023-06-19T01:52:08.856Z,215.86
2023-06-19T01:53:08.769Z,218.50
2023-06-19T01:54:08.874Z,220.44
2023-06-19T01:55:08.981Z,221.99
2023-06-19T01:56:09.093Z,221.23
2023-06-19T01:57:09.214Z,220.15
2023-06-19T01:58:09.324Z,220.97
2023-06-19T01:59:09.439Z,219.32
2023-06-19T02:00:09.572Z,217.88
2023-06-19T02:01:09.679Z,220.18
2023-06-19T02:02:09.839Z,222.01
2023-06-19T02:03:10.049Z,221.55
2023-06-19T02:04:10.073Z,222.19
2023-06-19T02:05:10.193Z,222.58
2023-06-19T02:06:10.319Z,222.60
2023-06-19T02:07:10.471Z,221.28
2023-06-19T02:08:10.585Z,224.75
2023-06-19T02:09:11.365Z,224.82
2023-06-19T02:10:10.910Z,225.94
2023-06-19T02:11:10.980Z,225.37
2023-06-19T02:12:11.117Z,223.83
2023-06-19T02:13:11.257Z,221.11
2023-06-19T02:14:11.374Z,219.33
2023-06-19T02:15:11.581Z,221.65
2023-06-19T02:16:11.673Z,221.63
2023-06-19T02:17:11.769Z,215.85
2023-06-19T02:18:11.885Z,213.03
2023-06-19T02:19:12.034Z,212.75
2023-06-19T02:20:12.192Z,213.86
2023-06-19T02:21:12.331Z,214.85
2023-06-19T02:22:12.477Z,215.50
2023-06-19T02:23:12.628Z,216.02
2023-06-19T02:24:12.784Z,217.19
2023-06-19T02:25:12.905Z,218.14
2023-06-19T02:26:13.042Z,218.89
2023-06-19T02:27:13.186Z,219.28
2023-06-19T02:28:13.330Z,217.90
2023-06-19T02:29:13.516Z,216.76
2023-06-19T02:30:13.609Z,216.85
2023-06-19T02:31:13.740Z,217.25
2023-06-19T02:32:13.879Z,218.28
2023-06-19T02:33:14.000Z,218.14
2023-06-19T02:34:14.134Z,218.33
2023-06-19T02:35:14.260Z,215.49
2023-06-19T02:36:14.385Z,212.56
2023-06-19T02:37:14.531Z,207.13
2023-06-19T02:38:14.655Z,204.08
2023-06-19T02:39:14.848Z,198.59
2023-06-19T02:40:14.945Z,193.86
2023-06-19T02:41:15.068Z,194.12
2023-06-19T02:42:15.208Z,192.25
2023-06-19T02:43:15.331Z,193.50
2023-06-19T02:44:15.453Z,191.25
2023-06-19T02:45:15.581Z,188.18
2023-06-19T02:46:15.739Z,187.15
2023-06-19T02:47:15.813Z,188.84
2023-06-19T02:48:15.926Z,189.38
2023-06-19T02:49:16.044Z,187.22
2023-06-19T02:50:16.154Z,185.79
2023-06-19T02:51:16.250Z,182.46
2023-06-19T02:52:16.356Z,170.54
2023-06-19T02:53:16.454Z,168.60
2023-06-19T02:54:16.549Z,173.81
2023-06-19T02:55:16.671Z,175.71
2023-06-19T02:56:16.782Z,177.27
2023-06-19T02:57:16.904Z,176.88
2023-06-19T02:58:17.025Z,176.60
2023-06-19T02:59:17.156Z,176.88
2023-06-19T03:00:17.279Z,176.76
2023-06-19T03:01:17.445Z,175.22
2023-06-19T03:02:17.476Z,175.17
2023-06-19T03:03:17.680Z,177.28
2023-06-19T03:04:17.697Z,177.98
2023-06-19T03:05:17.761Z,177.60
2023-06-19T03:06:17.888Z,181.49
2023-06-19T03:07:18.082Z,185.29
2023-06-19T03:08:18.210Z,187.13
2023-06-19T03:09:18.342Z,187.38
2023-06-19T03:10:18.473Z,184.98
2023-06-19T03:11:18.622Z,184.24
2023-06-19T03:12:18.724Z,183.40
2023-06-19T03:13:18.860Z,181.68
2023-06-19T03:14:19.030Z,177.76
2023-06-19T03:15:19.056Z,176.92
2023-06-19T03:16:19.189Z,178.87
2023-06-19T03:17:19.382Z,179.03
2023-06-19T03:18:19.381Z,176.60
2023-06-19T03:19:19.482Z,169.49
2023-06-19T03:20:19.564Z,162.04
2023-06-19T03:21:20.394Z,165.86
2023-06-19T03:22:19.783Z,170.15
2023-06-19T03:23:20.378Z,174.21
2023-06-19T03:24:20.012Z,175.27
2023-06-19T03:25:20.137Z,174.07
2023-06-19T03:26:20.270Z,175.77
2023-06-19T03:27:20.391Z,177.58
2023-06-19T03:28:20.553Z,179.54
2023-06-19T03:29:20.725Z,178.73
2023-06-19T03:30:20.935Z,177.12
2023-06-19T03:31:21.079Z,175.30
2023-06-19T03:32:21.355Z,174.74
2023-06-19T03:33:21.417Z,172.29
2023-06-19T03:34:21.587Z,170.34
2023-06-19T03:35:21.775Z,170.00
2023-06-19T03:36:21.934Z,171.30
2023-06-19T03:37:22.066Z,173.16
2023-06-19T03:38:22.206Z,175.48
2023-06-19T03:39:22.363Z,178.12
2023-06-19T03:40:22.868Z,179.79
2023-06-19T03:41:22.714Z,180.28
2023-06-19T03:42:22.865Z,181.00
2023-06-19T03:43:23.030Z,180.59
2023-06-19T03:44:23.191Z,179.50
2023-06-19T03:45:23.312Z,176.29
2023-06-19T03:46:23.518Z,176.62
2023-06-19T03:47:23.636Z,176.25
2023-06-19T03:48:23.774Z,176.92
2023-06-19T03:49:23.902Z,179.32
2023-06-19T03:50:26.389Z,182.84
2023-06-19T03:51:24.135Z,181.32
2023-06-19T03:52:24.229Z,176.37
2023-06-19T03:53:24.319Z,171.51
2023-06-19T03:54:24.403Z,170.01
2023-06-19T03:55:24.512Z,172.99
2023-06-19T03:56:24.590Z,166.97
2023-06-19T03:57:24.692Z,168.80
2023-06-19T03:58:24.782Z,173.17
2023-06-19T03:59:24.883Z,176.40
2023-06-19T04:00:25.250Z,172.61
2023-06-19T04:01:25.088Z,165.73
2023-06-19T04:02:25.175Z,165.63
2023-06-19T04:03:25.301Z,168.24
2023-06-19T04:04:25.374Z,168.47
2023-06-19T04:05:25.439Z,168.47
2023-06-19T04:06:25.562Z,169.70
2023-06-19T04:07:25.643Z,168.62
2023-06-19T04:08:25.728Z,171.13
2023-06-19T04:09:25.835Z,173.72
2023-06-19T04:10:26.270Z,174.42
2023-06-19T04:11:26.034Z,176.07
2023-06-19T04:12:26.131Z,177.27
2023-06-19T04:13:26.289Z,176.05
2023-06-19T04:14:26.338Z,173.46
2023-06-19T04:15:26.481Z,169.27
2023-06-19T04:16:27.536Z,167.26
2023-06-19T04:17:26.696Z,164.15
2023-06-19T04:18:26.790Z,163.71
2023-06-19T04:19:27.914Z,156.53
2023-06-19T04:20:27.099Z,150.01
2023-06-19T04:21:27.128Z,139.29
2023-06-19T04:22:27.287Z,137.73
2023-06-19T04:23:27.290Z,134.36
2023-06-19T04:24:27.936Z,127.46
2023-06-19T04:25:27.469Z,124.86
2023-06-19T04:26:27.515Z,124.91
2023-06-19T04:27:27.586Z,131.29
2023-06-19T04:28:27.667Z,146.01
2023-06-19T04:29:27.745Z,158.90
2023-06-19T04:30:27.972Z,164.12
2023-06-19T04:31:27.938Z,170.46
2023-06-19T04:32:28.099Z,176.00
2023-06-19T04:33:29.122Z,178.96
2023-06-19T04:34:28.225Z,181.65
2023-06-19T04:35:28.316Z,184.39
2023-06-19T04:36:28.407Z,186.44
2023-06-19T04:37:28.485Z,186.91
2023-06-19T04:38:28.599Z,184.97
2023-06-19T04:39:28.624Z,185.21
2023-06-19T04:40:28.711Z,183.51
2023-06-19T04:41:28.798Z,182.15
2023-06-19T04:42:28.867Z,180.94
2023-06-19T04:43:30.417Z,180.95
2023-06-19T04:44:29.911Z,181.22
2023-06-19T04:45:29.103Z,182.71
2023-06-19T04:46:29.267Z,183.16
2023-06-19T04:47:39.784Z,182.75
2023-06-19T04:48:30.493Z,181.03
2023-06-19T04:49:29.426Z,181.36
2023-06-19T04:50:29.520Z,182.12
2023-06-19T04:51:29.616Z,182.51
2023-06-19T04:52:29.793Z,183.91
2023-06-19T04:53:29.801Z,183.77
2023-06-19T04:54:29.909Z,182.17
2023-06-19T04:55:29.994Z,180.86
2023-06-19T04:56:30.070Z,179.37
2023-06-19T04:57:30.183Z,175.86
2023-06-19T04:58:30.270Z,164.40
2023-06-19T04:59:30.365Z,158.23
2023-06-19T05:00:30.465Z,154.48
2023-06-19T05:01:30.572Z,151.97
2023-06-19T05:02:30.680Z,150.03
2023-06-19T05:03:30.764Z,147.69
2023-06-19T05:04:30.900Z,144.39
2023-06-19T05:05:30.966Z,142.28
2023-06-19T05:06:31.050Z,141.50
2023-06-19T05:07:31.159Z,138.72
2023-06-19T05:08:31.246Z,137.60
2023-06-19T05:09:31.917Z,138.05
2023-06-19T05:10:31.515Z,136.88
2023-06-19T05:11:31.632Z,135.52
2023-06-19T05:12:31.761Z,133.31
2023-06-19T05:13:31.896Z,132.88
2023-06-19T05:14:32.017Z,136.42
2023-06-19T05:15:32.145Z,139.60
2023-06-19T05:16:34.401Z,136.82
2023-06-19T05:17:32.409Z,136.90
2023-06-19T05:18:32.408Z,138.55
2023-06-19T05:19:32.467Z,143.09
2023-06-19T05:20:32.535Z,149.83
2023-06-19T05:21:32.608Z,150.47
2023-06-19T05:22:32.670Z,144.79
2023-06-19T05:23:32.724Z,141.99
2023-06-19T05:24:32.832Z,139.85
2023-06-19T05:25:32.851Z,136.94
2023-06-19T05:26:32.917Z,134.13
2023-06-19T05:27:32.976Z,126.38
2023-06-19T05:28:33.036Z,116.09
2023-06-19T05:29:33.083Z,114.75
2023-06-19T05:30:33.233Z,128.00
2023-06-19T05:31:33.203Z,145.73
2023-06-19T05:32:33.331Z,155.75
2023-06-19T05:33:33.310Z,155.87
2023-06-19T05:34:33.357Z,155.76
2023-06-19T05:35:33.419Z,147.36
2023-06-19T05:36:33.472Z,138.11
2023-06-19T05:37:33.507Z,130.70
2023-06-19T05:38:33.546Z,126.47
2023-06-19T05:39:33.585Z,118.82
2023-06-19T05:40:33.628Z,112.81
2023-06-19T05:41:33.692Z,106.54
2023-06-19T05:42:33.843Z,106.14
2023-06-19T05:43:34.948Z,103.59
2023-06-19T05:44:34.063Z,103.62
2023-06-19T05:45:34.147Z,103.50
2023-06-19T05:46:34.240Z,102.54
2023-06-19T05:47:34.363Z,104.25
2023-06-19T05:48:34.432Z,102.93
2023-06-19T05:49:34.531Z,99.68
2023-06-19T05:50:34.608Z,96.02
2023-06-19T05:51:34.683Z,96.69
2023-06-19T05:52:34.765Z,97.00
2023-06-19T05:53:34.844Z,97.79
2023-06-19T05:54:34.957Z,96.97
2023-06-19T05:55:35.068Z,97.55
2023-06-19T05:56:35.128Z,98.83
2023-06-19T05:57:35.289Z,100.90
2023-06-19T05:58:35.298Z,96.34
2023-06-19T05:59:35.455Z,91.75
2023-06-19T06:00:35.609Z,91.88
2023-06-19T06:01:35.574Z,93.98
2023-06-19T06:02:35.714Z,95.96
2023-06-19T06:03:35.792Z,97.16
2023-06-19T06:04:36.020Z,97.43
2023-06-19T06:05:35.960Z,92.43
2023-06-19T06:06:36.034Z,92.25
2023-06-19T06:07:36.558Z,100.15
2023-06-19T06:08:36.165Z,99.99
2023-06-19T06:09:36.258Z,106.18
2023-06-19T06:10:36.377Z,120.11
2023-06-19T06:11:36.530Z,138.49
2023-06-19T06:12:36.939Z,151.18
2023-06-19T06:13:36.799Z,158.15
2023-06-19T06:14:37.449Z,159.77
2023-06-19T06:15:36.909Z,159.04
2023-06-19T06:16:37.032Z,160.39
2023-06-19T06:17:37.113Z,161.24
2023-06-19T06:18:37.176Z,161.70
2023-06-19T06:19:37.360Z,163.33
2023-06-19T06:20:37.395Z,163.40
2023-06-19T06:21:37.516Z,161.97
2023-06-19T06:22:37.698Z,162.50
2023-06-19T06:23:37.778Z,162.59
2023-06-19T06:24:37.921Z,152.59
2023-06-19T06:25:37.982Z,154.96
2023-06-19T06:26:38.986Z,148.15
2023-06-19T06:27:38.132Z,141.63
2023-06-19T06:28:38.189Z,131.35
2023-06-19T06:29:39.331Z,125.33
2023-06-19T06:30:38.441Z,122.69
2023-06-19T06:31:38.509Z,123.64
2023-06-19T06:32:38.597Z,128.65
2023-06-19T06:33:38.683Z,135.87
2023-06-19T06:34:38.899Z,137.79
2023-06-19T06:35:39.086Z,118.68
2023-06-19T06:36:46.389Z,109.93
2023-06-19T06:37:40.286Z,110.04
2023-06-19T06:38:39.323Z,111.20
2023-06-19T06:39:39.345Z,114.81
2023-06-19T06:40:39.456Z,121.21
2023-06-19T06:41:39.420Z,132.04
2023-06-19T06:42:39.450Z,134.62
2023-06-19T06:43:39.481Z,135.99
2023-06-19T06:44:39.523Z,131.76
2023-06-19T06:45:39.660Z,130.45
2023-06-19T06:46:39.592Z,129.22
2023-06-19T06:47:39.692Z,128.12
2023-06-19T06:48:39.760Z,122.72
2023-06-19T06:49:39.852Z,113.61
2023-06-19T06:50:39.933Z,106.80
2023-06-19T06:51:40.017Z,99.57
2023-06-19T06:52:40.086Z,96.24
2023-06-19T06:53:40.959Z,96.15
2023-06-19T06:54:40.320Z,100.75
2023-06-19T06:55:40.343Z,107.76
2023-06-19T06:56:40.421Z,113.76
2023-06-19T06:57:40.477Z,113.23
2023-06-19T06:58:40.551Z,115.40
2023-06-19T06:59:40.594Z,117.88
2023-06-19T07:00:40.664Z,113.82
2023-06-19T07:01:40.713Z,102.96
2023-06-19T07:02:40.899Z,103.69
2023-06-19T07:03:40.886Z,103.62
2023-06-19T07:04:40.854Z,101.75
2023-06-19T07:05:40.914Z,94.61
2023-06-19T07:06:40.951Z,90.62
2023-06-19T07:07:41.028Z,87.44
2023-06-19T07:08:41.065Z,87.64
2023-06-19T07:09:41.182Z,85.32
2023-06-19T07:10:41.147Z,82.27
2023-06-19T07:11:41.207Z,80.27
2023-06-19T07:12:41.264Z,76.94
2023-06-19T07:13:41.379Z,72.97
2023-06-19T07:14:41.383Z,69.95
2023-06-19T07:15:41.435Z,66.44
2023-06-19T07:16:41.522Z,65.05
2023-06-19T07:17:41.671Z,65.47
2023-06-19T07:18:41.581Z,65.90
2023-06-19T07:19:41.612Z,67.14
2023-06-19T07:20:41.676Z,66.92
2023-06-19T07:21:41.760Z,67.30
2023-06-19T07:22:41.829Z,70.19
2023-06-19T07:23:42.480Z,75.67
2023-06-19T07:24:42.061Z,77.62
2023-06-19T07:25:41.989Z,79.23
2023-06-19T07:26:42.027Z,83.86
2023-06-19T07:27:42.108Z,81.95
2023-06-19T07:28:42.186Z,78.97
2023-06-19T07:29:42.170Z,79.26
2023-06-19T07:30:42.184Z,83.33
2023-06-19T07:31:42.198Z,85.25
2023-06-19T07:32:42.260Z,87.86
2023-06-19T07:33:42.234Z,87.04
2023-06-19T07:34:42.273Z,81.63
2023-06-19T07:35:42.343Z,79.33
2023-06-19T07:36:42.310Z,76.58
2023-06-19T07:37:42.381Z,77.14
2023-06-19T07:38:42.508Z,78.11
2023-06-19T07:39:42.495Z,75.57
2023-06-19T07:40:42.571Z,75.47
2023-06-19T07:41:42.582Z,74.88
2023-06-19T07:42:44.583Z,78.93
2023-06-19T07:43:42.737Z,80.46
2023-06-19T07:44:42.755Z,84.58
2023-06-19T07:45:42.839Z,79.89
2023-06-19T07:46:42.865Z,78.83
2023-06-19T07:47:42.960Z,81.12
2023-06-19T07:48:42.949Z,83.32
2023-06-19T07:49:43.120Z,80.08
2023-06-19T07:50:43.049Z,80.05
2023-06-19T07:51:43.142Z,78.78
2023-06-19T07:52:43.184Z,84.58
2023-06-19T07:53:43.224Z,91.08
2023-06-19T07:54:43.361Z,92.37
2023-06-19T07:55:43.234Z,91.76
2023-06-19T07:56:43.261Z,84.64
2023-06-19T07:57:43.301Z,81.01
2023-06-19T07:58:43.311Z,80.33
2023-06-19T07:59:43.474Z,87.00
2023-06-19T08:00:43.341Z,93.31
2023-06-19T08:01:43.378Z,93.18
2023-06-19T08:02:43.459Z,92.23
2023-06-19T08:03:43.446Z,96.69
2023-06-19T08:04:43.447Z,92.23
2023-06-19T08:05:43.438Z,89.29
2023-06-19T08:06:43.467Z,88.19
2023-06-19T08:07:43.485Z,90.76
2023-06-19T08:08:43.493Z,91.71
2023-06-19T08:09:43.507Z,96.23
2023-06-19T08:10:43.550Z,87.74
2023-06-19T08:11:43.554Z,80.70
2023-06-19T08:12:43.999Z,75.89
2023-06-19T08:13:43.556Z,75.23
2023-06-19T08:14:43.677Z,74.24
2023-06-19T08:15:44.455Z,78.52
2023-06-19T08:16:43.662Z,78.74
2023-06-19T08:17:43.672Z,82.03
2023-06-19T08:18:43.679Z,77.00
2023-06-19T08:19:43.614Z,70.67
2023-06-19T08:20:43.611Z,71.69
2023-06-19T08:21:43.582Z,82.33
2023-06-19T08:22:43.570Z,85.17
2023-06-19T08:23:43.547Z,80.78
2023-06-19T08:24:43.568Z,79.97
2023-06-19T08:25:43.529Z,79.38
2023-06-19T08:26:43.551Z,71.95
2023-06-19T08:27:43.472Z,61.29
2023-06-19T08:28:43.450Z,54.07
2023-06-19T08:29:43.444Z,48.17
2023-06-19T08:30:43.441Z,48.40
2023-06-19T08:31:43.466Z,54.99
2023-06-19T08:32:43.530Z,67.25
2023-06-19T08:33:44.423Z,75.32
2023-06-19T08:34:43.589Z,74.29
2023-06-19T08:35:43.548Z,70.81
2023-06-19T08:36:44.508Z,73.45
2023-06-19T08:37:43.595Z,72.22
2023-06-19T08:38:44.418Z,74.96
2023-06-19T08:39:43.636Z,77.19
2023-06-19T08:40:43.658Z,73.89
2023-06-19T08:41:43.759Z,69.28
2023-06-19T08:42:43.710Z,56.84
2023-06-19T08:43:43.712Z,57.87
2023-06-19T08:44:43.719Z,60.66
2023-06-19T08:45:43.784Z,66.98
2023-06-19T08:46:43.783Z,65.39
2023-06-19T08:47:43.790Z,62.07
2023-06-19T08:48:43.786Z,54.91
2023-06-19T08:49:43.817Z,44.90
2023-06-19T08:50:44.770Z,35.88
2023-06-19T08:51:43.754Z,33.32
2023-06-19T08:52:43.725Z,29.28
2023-06-19T08:53:43.710Z,34.26
2023-06-19T08:54:43.684Z,39.84
2023-06-19T08:55:44.015Z,42.75
2023-06-19T08:56:43.637Z,44.19
2023-06-19T08:57:43.615Z,34.32
2023-06-19T08:58:43.562Z,38.64
2023-06-19T08:59:43.564Z,43.78
2023-06-19T09:00:43.573Z,45.98
2023-06-19T09:01:43.570Z,45.89
2023-06-19T09:02:43.675Z,44.27
2023-06-19T09:03:43.676Z,34.12
2023-06-19T09:04:43.613Z,39.52
2023-06-19T09:05:46.772Z,42.57
2023-06-19T09:06:43.652Z,34.33
2023-06-19T09:07:43.538Z,31.70
2023-06-19T09:08:43.491Z,30.11
2023-06-19T09:09:43.449Z,21.29
2023-06-19T09:10:43.401Z,22.08
2023-06-19T09:11:43.351Z,25.77
2023-06-19T09:12:43.387Z,33.60
2023-06-19T09:13:43.269Z,38.17
2023-06-19T09:14:43.224Z,36.76
2023-06-19T09:15:43.172Z,36.41
2023-06-19T09:16:43.140Z,36.22
2023-06-19T09:17:43.150Z,40.56
2023-06-19T09:18:43.059Z,37.48
2023-06-19T09:19:43.004Z,38.75
2023-06-19T09:20:43.026Z,38.36
2023-06-19T09:21:44.021Z,36.29
2023-06-19T09:22:42.859Z,35.99
2023-06-19T09:23:42.822Z,33.32
2023-06-19T09:24:42.916Z,30.41
2023-06-19T09:25:42.920Z,32.11
2023-06-19T09:26:42.726Z,32.75
2023-06-19T09:27:42.757Z,32.36
2023-06-19T09:28:42.802Z,30.94
2023-06-19T09:29:42.827Z,32.30
2023-06-19T09:30:42.805Z,32.69
2023-06-19T09:31:42.812Z,27.02
2023-06-19T09:32:42.880Z,30.96
2023-06-19T09:33:42.861Z,25.94
2023-06-19T09:34:42.726Z,29.49
2023-06-19T09:35:42.690Z,25.19
2023-06-19T09:36:42.668Z,25.00
2023-06-19T09:37:42.677Z,29.95
2023-06-19T09:38:42.636Z,37.09
2023-06-19T09:39:42.596Z,28.62
2023-06-19T09:40:42.552Z,24.83
2023-06-19T09:41:42.677Z,20.18
2023-06-19T09:42:42.491Z,27.19
2023-06-19T09:43:42.469Z,36.18
2023-06-19T09:44:46.103Z,31.64
2023-06-19T09:45:43.045Z,31.70
2023-06-19T09:46:42.331Z,28.64
2023-06-19T09:47:42.324Z,30.93
2023-06-19T09:48:42.178Z,30.95
2023-06-19T09:49:42.109Z,36.44
2023-06-19T09:50:42.043Z,39.70
2023-06-19T09:51:41.974Z,37.21
2023-06-19T09:52:41.909Z,33.59
2023-06-19T09:53:41.890Z,34.60
2023-06-19T09:54:41.770Z,33.73
2023-06-19T09:55:41.722Z,31.61
2023-06-19T09:56:41.661Z,30.40
2023-06-19T09:57:41.623Z,33.33
2023-06-19T09:58:41.535Z,28.61
2023-06-19T09:59:41.502Z,30.85
2023-06-19T10:00:41.417Z,32.40
2023-06-19T10:01:41.339Z,33.91
2023-06-19T10:02:41.354Z,33.82
2023-06-19T10:03:41.300Z,32.39
2023-06-19T10:04:41.159Z,33.15
2023-06-19T10:05:41.095Z,25.61
2023-06-19T10:06:41.030Z,34.19
2023-06-19T10:07:40.983Z,35.41
2023-06-19T10:08:40.922Z,33.23
2023-06-19T10:09:40.988Z,37.64
2023-06-19T10:10:40.762Z,34.65
2023-06-19T10:11:40.686Z,34.19
2023-06-19T10:12:40.616Z,32.17
2023-06-19T10:13:40.585Z,30.28
2023-06-19T10:14:40.480Z,29.21
2023-06-19T10:15:40.485Z,33.10
2023-06-19T10:16:40.405Z,38.05
2023-06-19T10:17:40.277Z,33.66
2023-06-19T10:18:40.157Z,27.70
2023-06-19T10:19:40.078Z,27.94
2023-06-19T10:20:46.371Z,31.62
2023-06-19T10:21:40.994Z,26.32
2023-06-19T10:22:39.884Z,25.84
2023-06-19T10:23:39.882Z,30.90
2023-06-19T10:24:39.843Z,31.77
2023-06-19T10:25:39.683Z,29.52
2023-06-19T10:26:39.591Z,29.60
2023-06-19T10:27:39.536Z,29.07
2023-06-19T10:28:39.437Z,30.95
2023-06-19T10:29:39.424Z,36.99
2023-06-19T10:30:39.324Z,38.35
2023-06-19T10:31:39.188Z,43.32
2023-06-19T10:32:39.125Z,39.19
2023-06-19T10:33:39.016Z,32.88
2023-06-19T10:34:39.573Z,32.25
2023-06-19T10:35:38.842Z,31.15
2023-06-19T10:36:38.758Z,31.54
2023-06-19T10:37:38.753Z,32.10
2023-06-19T10:38:38.634Z,34.34
2023-06-19T10:39:38.574Z,25.99
2023-06-19T10:40:38.553Z,26.84
2023-06-19T10:41:38.524Z,27.77
2023-06-19T10:42:38.484Z,32.67
2023-06-19T10:43:38.981Z,27.44
2023-06-19T10:44:38.442Z,28.55
2023-06-19T10:45:38.453Z,33.93
2023-06-19T10:46:38.413Z,36.89
2023-06-19T10:47:38.353Z,31.75
2023-06-19T10:48:38.445Z,24.47
2023-06-19T10:49:38.314Z,24.95
2023-06-19T10:50:38.257Z,27.60
2023-06-19T10:51:38.219Z,18.61
2023-06-19T10:52:38.274Z,14.89
2023-06-19T10:53:38.146Z,32.45
2023-06-19T10:54:38.108Z,42.31
2023-06-19T10:55:38.057Z,41.40
2023-06-19T10:56:38.019Z,40.87
2023-06-19T10:57:38.008Z,40.23
2023-06-19T10:58:37.910Z,42.39
2023-06-19T10:59:37.850Z,44.18
2023-06-19T11:00:37.791Z,41.79
2023-06-19T11:01:37.819Z,40.82
2023-06-19T11:02:37.839Z,24.00
2023-06-19T11:03:37.712Z,14.71
2023-06-19T11:04:37.648Z,20.96
2023-06-19T11:05:37.621Z,27.09
2023-06-19T11:06:37.584Z,38.95
2023-06-19T11:07:37.525Z,45.53
2023-06-19T11:08:37.502Z,32.20
2023-06-19T11:09:37.471Z,30.20
2023-06-19T11:10:37.432Z,44.93
2023-06-19T11:11:37.385Z,66.42
2023-06-19T11:12:37.360Z,59.23
2023-06-19T11:13:37.323Z,60.81
2023-06-19T11:14:37.309Z,50.30
2023-06-19T11:15:37.280Z,62.81
2023-06-19T11:16:37.277Z,65.61
2023-06-19T11:17:37.215Z,56.90
2023-06-19T11:18:37.148Z,48.38
2023-06-19T11:19:37.113Z,61.01
2023-06-19T11:20:37.129Z,68.69
2023-06-19T11:21:37.025Z,63.45
2023-06-19T11:22:36.991Z,52.53
2023-06-19T11:23:37.048Z,51.95
2023-06-19T11:24:36.982Z,49.35
2023-06-19T11:25:36.839Z,36.53
2023-06-19T11:26:36.792Z,43.74
2023-06-19T11:27:36.858Z,55.02
2023-06-19T11:28:37.581Z,59.39
2023-06-19T11:29:36.661Z,54.49
2023-06-19T11:30:37.594Z,50.31
2023-06-19T11:31:36.493Z,46.65
2023-06-19T11:32:36.471Z,50.88
2023-06-19T11:33:36.329Z,54.17
2023-06-19T11:34:36.227Z,61.93
2023-06-19T11:35:36.145Z,59.07
2023-06-19T11:36:36.071Z,57.79
2023-06-19T11:37:36.009Z,54.89
2023-06-19T11:38:35.909Z,46.56
2023-06-19T11:39:35.832Z,46.74
2023-06-19T11:40:35.776Z,48.76
2023-06-19T11:41:35.755Z,51.36
2023-06-19T11:42:35.744Z,55.39
2023-06-19T11:43:35.691Z,52.29
2023-06-19T11:44:36.814Z,65.79
2023-06-19T11:45:35.584Z,75.30
2023-06-19T11:46:35.569Z,64.14
2023-06-19T11:47:35.511Z,60.54
2023-06-19T11:48:35.422Z,58.13
2023-06-19T11:49:35.353Z,58.70
2023-06-19T11:50:35.288Z,56.61
2023-06-19T11:51:35.149Z,46.29
2023-06-19T11:52:35.101Z,35.34
2023-06-19T11:53:35.011Z,33.12
2023-06-19T11:54:35.172Z,42.74
2023-06-19T11:55:36.188Z,59.00
2023-06-19T11:56:35.225Z,60.87
2023-06-19T11:57:35.130Z,42.39
2023-06-19T11:58:35.033Z,25.25
2023-06-19T11:59:34.936Z,20.30
2023-06-19T12:00:34.849Z,39.86
2023-06-19T12:01:34.726Z,49.06
2023-06-19T12:02:35.215Z,33.77
2023-06-19T12:03:34.636Z,29.34
2023-06-19T12:04:35.166Z,31.29
2023-06-19T12:05:34.428Z,32.26
2023-06-19T12:06:34.373Z,41.68
2023-06-19T12:07:34.331Z,50.76
2023-06-19T12:08:34.281Z,57.54
2023-06-19T12:09:34.242Z,67.25
2023-06-19T12:10:34.155Z,67.23
2023-06-19T12:11:34.107Z,64.51
2023-06-19T12:12:34.033Z,64.79
2023-06-19T12:13:33.973Z,58.65
2023-06-19T12:14:33.918Z,63.67
2023-06-19T12:15:35.424Z,64.12
2023-06-19T12:16:33.763Z,60.56
2023-06-19T12:17:33.646Z,63.09
2023-06-19T12:18:33.503Z,58.86
2023-06-19T12:19:33.436Z,60.48
2023-06-19T12:20:33.292Z,64.18
2023-06-19T12:21:38.637Z,68.47
2023-06-19T12:22:34.055Z,68.64
2023-06-19T12:23:32.942Z,70.88
2023-06-19T12:24:32.915Z,75.45
2023-06-19T12:25:32.752Z,68.60
2023-06-19T12:26:32.604Z,60.92
2023-06-19T12:27:32.639Z,58.65
2023-06-19T12:28:32.401Z,74.59
2023-06-19T12:29:32.298Z,64.72
2023-06-19T12:30:32.206Z,60.20
2023-06-19T12:31:32.067Z,60.65
2023-06-19T12:32:32.113Z,59.20
2023-06-19T12:33:31.872Z,64.76
2023-06-19T12:34:32.106Z,47.89
2023-06-19T12:35:31.697Z,49.60
2023-06-19T12:36:31.549Z,68.64
2023-06-19T12:37:31.453Z,79.17
2023-06-19T12:38:31.358Z,88.48
2023-06-19T12:39:31.313Z,96.18
2023-06-19T12:40:31.148Z,96.25